Time;durP1;ratioP1;P1;durP2;ratioP2;P2;SDS_P1;SDS_P2;PMS_P1;PMS_P2;Temp;Humidity;BMP_temperature;BMP_pressure;BME280_temperature;BME280_humidity;BME280_pressure;Samples;Min_cycle;Max_cycle;Signal;HPM_P1;HPM_P2
2022/12/17 13:06:43;;;;;;;29.27;14.95;;;3.70;64.70;;;;;;4967056;28;20049;-50
2022/12/17 13:09:16;;;;;;;29.65;16.80;;;3.70;64.50;;;;;;4966595;28;20045;-52
2022/12/17 13:12:03;;;;;;;27.27;17.20;;;3.60;64.60;;;;;;4964087;28;20053;-52
2022/12/17 13:14:57;;;;;;;27.40;16.70;;;3.60;64.40;;;;;;4959706;28;20054;-52
2022/12/17 13:17:37;;;;;;;25.17;14.73;;;3.60;64.40;;;;;;4966069;28;20054;-55
2022/12/17 13:20:24;;;;;;;31.13;17.15;;;3.60;64.50;;;;;;4963016;28;20074;-54
2022/12/17 13:23:13;;;;;;;28.67;17.05;;;3.60;64.20;;;;;;4962448;28;20047;-55
2022/12/17 13:25:40;;;;;;;31.20;18.00;;;3.60;64.40;;;;;;4981545;28;20480;-54
2022/12/17 13:28:29;;;;;;;31.35;18.05;;;3.60;64.40;;;;;;4970010;28;20043;-55
2022/12/17 13:31:05;;;;;;;30.50;16.40;;;3.50;64.10;;;;;;4966036;28;20059;-55
2022/12/17 13:33:46;;;;;;;31.40;16.35;;;3.50;64.40;;;;;;4969018;28;20054;-54
2022/12/17 13:36:25;;;;;;;32.40;16.83;;;3.40;64.50;;;;;;4980117;28;20051;-55
2022/12/17 13:39:03;;;;;;;29.00;17.27;;;3.40;64.70;;;;;;4981076;28;20068;-53
2022/12/17 13:41:32;;;;;;;27.75;15.75;;;3.40;64.70;;;;;;4989606;28;20046;-53
2022/12/17 13:44:18;;;;;;;29.38;17.55;;;3.40;64.80;;;;;;4975472;28;20047;-50
2022/12/17 13:46:47;;;;;;;35.97;18.75;;;3.40;64.90;;;;;;4966964;28;20062;-54
2022/12/17 13:49:21;;;;;;;33.58;16.27;;;3.30;65.00;;;;;;4979886;28;20038;-55
2022/12/17 13:51:58;;;;;;;31.08;17.50;;;3.40;64.90;;;;;;4973594;28;20070;-53
2022/12/17 13:54:25;;;;;;;29.58;17.05;;;3.30;64.90;;;;;;4977401;28;20046;-54
2022/12/17 13:56:53;;;;;;;31.67;17.83;;;3.30;65.00;;;;;;4977946;28;20507;-51
2022/12/17 13:59:23;;;;;;;30.27;17.50;;;3.30;65.10;;;;;;4968886;28;20051;-51
2022/12/17 14:01:53;;;;;;;32.58;17.60;;;3.30;65.10;;;;;;4970604;28;20043;-54
2022/12/17 14:04:25;;;;;;;30.40;17.40;;;3.30;65.30;;;;;;4972240;28;20038;-55
2022/12/17 14:06:56;;;;;;;30.00;17.67;;;3.30;65.30;;;;;;4967497;28;20074;-54
2022/12/17 14:09:36;;;;;;;27.88;15.88;;;3.30;65.20;;;;;;4958856;28;20104;-54
2022/12/17 14:12:24;;;;;;;30.70;16.73;;;3.30;65.10;;;;;;4971969;28;20049;-53
2022/12/17 14:14:59;;;;;;;29.27;16.15;;;3.30;65.00;;;;;;4973300;28;20039;-54
2022/12/17 14:17:36;;;;;;;32.35;17.95;;;3.20;64.80;;;;;;4968151;28;20047;-54
2022/12/17 14:20:11;;;;;;;33.08;16.77;;;3.20;64.80;;;;;;4966446;28;20466;-56
2022/12/17 14:22:59;;;;;;;32.00;17.25;;;3.20;64.90;;;;;;4964957;28;20559;-55
2022/12/17 14:25:30;;;;;;;27.30;17.05;;;3.20;64.90;;;;;;4979689;28;20048;-54
2022/12/17 14:28:06;;;;;;;36.63;20.23;;;3.20;65.20;;;;;;4981615;28;20045;-55
2022/12/17 14:30:37;;;;;;;33.97;17.48;;;3.10;65.20;;;;;;4973542;28;20047;-56
2022/12/17 14:33:28;;;;;;;31.27;16.52;;;3.10;65.20;;;;;;4969234;28;20038;-54
2022/12/17 14:35:56;;;;;;;30.38;16.67;;;3.10;65.10;;;;;;4986414;28;20052;-56
2022/12/17 14:38:25;;;;;;;27.35;14.43;;;3.10;65.00;;;;;;4989449;28;20057;-55
2022/12/17 14:43:59;;;;;;;29.70;16.35;;;3.00;64.90;;;;;;4985912;28;20057;-55
2022/12/17 14:46:28;;;;;;;33.80;16.38;;;3.00;65.10;;;;;;4961692;28;20045;-54
2022/12/17 14:48:59;;;;;;;26.48;15.43;;;2.90;65.10;;;;;;4978118;28;20045;-54
2022/12/17 14:51:33;;;;;;;32.50;17.35;;;2.90;65.10;;;;;;4981203;28;20496;-54
2022/12/17 14:54:18;;;;;;;30.85;16.63;;;2.80;65.20;;;;;;4987214;28;20049;-54
2022/12/17 14:56:48;;;;;;;31.23;16.10;;;2.80;65.20;;;;;;4968083;28;20046;-55
2022/12/17 14:59:24;;;;;;;25.42;15.73;;;2.80;65.20;;;;;;4984324;28;20050;-54
2022/12/17 15:01:52;;;;;;;32.05;17.42;;;2.80;65.20;;;;;;4978300;28;20070;-56
2022/12/17 15:04:22;;;;;;;35.28;18.23;;;2.70;65.30;;;;;;4975267;28;20518;-51
2022/12/17 15:06:52;;;;;;;32.83;18.75;;;2.80;65.40;;;;;;4968453;28;20054;-55
2022/12/17 15:09:19;;;;;;;34.55;19.02;;;2.70;65.40;;;;;;4964554;28;20039;-55
2022/12/17 15:11:46;;;;;;;32.50;17.55;;;2.70;65.40;;;;;;4973292;28;20066;-56
2022/12/17 15:14:12;;;;;;;37.45;19.65;;;2.60;65.40;;;;;;4962774;28;20118;-52
2022/12/17 15:16:39;;;;;;;37.85;21.75;;;2.60;65.50;;;;;;4966430;28;20055;-51
2022/12/17 15:19:06;;;;;;;42.47;28.35;;;2.60;65.60;;;;;;4977128;28;20049;-54
2022/12/17 15:21:33;;;;;;;37.53;22.73;;;2.50;65.60;;;;;;4968696;28;20049;-54
2022/12/17 15:24:00;;;;;;;35.75;19.17;;;2.50;65.80;;;;;;4969785;28;20097;-51
2022/12/17 15:26:26;;;;;;;34.25;18.85;;;2.50;65.80;;;;;;4982444;28;20050;-55
2022/12/17 15:28:53;;;;;;;34.50;19.40;;;2.50;65.80;;;;;;4975416;28;20514;-56
2022/12/17 15:31:20;;;;;;;36.08;19.90;;;2.50;65.90;;;;;;4969350;28;20487;-54
2022/12/17 15:33:52;;;;;;;34.78;18.75;;;2.50;65.90;;;;;;4976994;28;20126;-54
2022/12/17 15:36:18;;;;;;;31.15;17.50;;;2.50;65.90;;;;;;4982877;28;20045;-54
2022/12/17 15:38:45;;;;;;;39.13;20.65;;;2.40;65.80;;;;;;4968735;28;20047;-55
2022/12/17 15:43:59;;;;;;;40.70;20.30;;;2.40;65.80;;;;;;4967364;28;20046;-54
2022/12/17 15:46:26;;;;;;;36.13;18.45;;;2.40;65.80;;;;;;4964707;28;20050;-53
2022/12/17 15:48:53;;;;;;;34.05;19.13;;;2.40;65.80;;;;;;4974944;28;20074;-54
2022/12/17 15:51:20;;;;;;;35.75;20.05;;;2.30;65.70;;;;;;4985821;28;20043;-53
2022/12/17 15:53:47;;;;;;;38.65;20.20;;;2.30;65.60;;;;;;4973324;28;20038;-55
2022/12/17 15:56:20;;;;;;;36.50;17.90;;;2.20;65.50;;;;;;4973904;28;20054;-56
2022/12/17 15:58:47;;;;;;;36.33;18.60;;;2.20;65.40;;;;;;4981986;28;20058;-56
2022/12/17 16:01:14;;;;;;;35.95;18.48;;;2.10;65.20;;;;;;4939381;28;20039;-56
2022/12/17 16:03:42;;;;;;;34.42;18.92;;;2.00;65.00;;;;;;4955611;28;20038;-55
2022/12/17 16:06:10;;;;;;;37.15;19.08;;;1.90;64.90;;;;;;4982325;28;20089;-53
2022/12/17 16:08:38;;;;;;;33.20;18.90;;;1.90;64.90;;;;;;4976945;28;20038;-55
2022/12/17 16:11:11;;;;;;;33.75;18.73;;;1.80;64.70;;;;;;4971797;28;20066;-56
2022/12/17 16:13:38;;;;;;;36.28;19.63;;;1.70;64.40;;;;;;4967171;28;20039;-56
2022/12/17 16:16:06;;;;;;;32.78;18.50;;;1.60;64.40;;;;;;4973747;28;20042;-56
2022/12/17 16:18:34;;;;;;;34.50;19.35;;;1.50;64.30;;;;;;4991287;28;20054;-51
2022/12/17 16:21:02;;;;;;;41.97;21.20;;;1.40;64.20;;;;;;4983017;28;20510;-55
2022/12/17 16:23:29;;;;;;;41.28;22.02;;;1.30;64.20;;;;;;4974469;28;20038;-54
2022/12/17 16:26:01;;;;;;;30.23;18.80;;;1.20;64.10;;;;;;4983082;28;20042;-55
2022/12/17 16:28:28;;;;;;;31.50;17.90;;;1.10;64.10;;;;;;4974391;28;20042;-53
2022/12/17 16:31:26;;;;;;;33.58;19.73;;;1.00;64.00;;;;;;4971668;28;20094;-50
2022/12/17 16:33:52;;;;;;;34.78;18.58;;;0.90;64.20;;;;;;4967916;28;20924;-49
2022/12/17 16:36:20;;;;;;;35.35;19.58;;;0.90;64.30;;;;;;4983627;28;20096;-53
2022/12/17 16:38:52;;;;;;;36.25;19.42;;;0.70;64.10;;;;;;4977755;28;20579;-54
2022/12/17 16:41:20;;;;;;;35.33;18.65;;;0.70;64.10;;;;;;4972881;28;20125;-50
2022/12/17 16:43:49;;;;;;;36.28;19.05;;;0.60;64.10;;;;;;4972384;28;20042;-50
2022/12/17 16:46:31;;;;;;;33.05;17.80;;;0.50;64.10;;;;;;4981374;28;20822;-51
2022/12/17 16:49:02;;;;;;;;;;;0.40;64.70;;;;;;4990254;28;20049;-52
2022/12/17 16:51:29;;;;;;;26.38;14.82;;;0.40;63.90;;;;;;4971240;28;19926;-55
2022/12/17 16:53:57;;;;;;;30.80;17.55;;;0.30;64.10;;;;;;4986079;28;20422;-53
2022/12/17 16:56:26;;;;;;;33.97;20.02;;;0.20;64.00;;;;;;4978895;28;20142;-50
2022/12/17 16:58:53;;;;;;;35.03;17.83;;;0.10;64.00;;;;;;4971210;28;20081;-51
2022/12/17 17:01:23;;;;;;;31.92;16.83;;;0.00;64.10;;;;;;4975292;28;20121;-52
2022/12/17 17:03:49;;;;;;;33.78;17.85;;;0.00;64.20;;;;;;4980849;28;20121;-50
2022/12/17 17:06:17;;;;;;;36.80;18.25;;;-0.10;64.20;;;;;;4981601;28;20442;-50
2022/12/17 17:08:44;;;;;;;33.22;18.02;;;-0.10;64.30;;;;;;4981424;28;20046;-52
2022/12/17 17:11:14;;;;;;;34.15;19.55;;;-0.20;64.20;;;;;;4978357;28;20048;-53
2022/12/17 17:13:41;;;;;;;33.95;17.92;;;-0.20;64.30;;;;;;4979492;28;20048;-49
2022/12/17 17:16:09;;;;;;;30.42;17.52;;;-0.30;64.20;;;;;;4970143;28;20732;-53
2022/12/17 17:18:36;;;;;;;31.73;18.98;;;-0.40;64.20;;;;;;4970339;28;20678;-53
2022/12/17 17:21:22;;;;;;;33.13;17.45;;;-0.40;64.20;;;;;;4977803;28;20496;-52
2022/12/17 17:24:00;;;;;;;32.55;17.38;;;-0.40;64.10;;;;;;4971156;28;20065;-52
2022/12/17 17:26:28;;;;;;;32.75;18.83;;;-0.50;64.00;;;;;;4984814;28;20048;-51
2022/12/17 17:28:55;;;;;;;34.70;17.95;;;-0.50;64.10;;;;;;5052211;22;20513;-52
2022/12/17 17:31:22;;;;;;;36.80;18.48;;;-0.60;64.20;;;;;;5023127;28;20494;-54
2022/12/17 17:33:56;;;;;;;40.60;19.80;;;-0.60;64.20;;;;;;5025668;28;20052;-55
2022/12/17 17:36:30;;;;;;;36.47;18.35;;;-0.70;64.20;;;;;;5028176;28;20041;-56
2022/12/17 17:38:59;;;;;;;35.90;18.65;;;-0.70;64.10;;;;;;5026069;28;20037;-52
2022/12/17 17:41:29;;;;;;;33.97;17.90;;;-0.80;64.10;;;;;;5026554;28;20114;-53
2022/12/17 17:43:58;;;;;;;31.23;18.60;;;-0.90;64.10;;;;;;5031864;28;20056;-53
2022/12/17 17:46:26;;;;;;;34.38;18.63;;;-0.90;64.20;;;;;;5033084;28;20046;-55
2022/12/17 17:48:56;;;;;;;35.88;19.77;;;-0.90;64.20;;;;;;5030846;28;20037;-55
2022/12/17 17:51:28;;;;;;;37.10;19.58;;;-0.90;64.30;;;;;;5026546;28;20125;-56
2022/12/17 17:54:14;;;;;;;34.42;16.98;;;-1.00;64.10;;;;;;5022155;28;20053;-53
2022/12/17 17:56:42;;;;;;;33.75;18.92;;;-1.00;64.10;;;;;;5028932;28;20136;-53
2022/12/17 17:59:18;;;;;;;37.25;18.50;;;-1.00;64.20;;;;;;5030084;28;20450;-55
2022/12/17 18:01:48;;;;;;;38.42;21.13;;;-1.10;64.10;;;;;;5024528;28;20056;-51
2022/12/17 18:04:18;;;;;;;35.72;19.92;;;-1.20;64.10;;;;;;5032485;28;20043;-52
2022/12/17 18:06:47;;;;;;;39.38;19.92;;;-1.20;64.10;;;;;;5028383;28;20126;-56
2022/12/17 18:09:33;;;;;;;39.05;19.55;;;-1.20;64.10;;;;;;5028059;28;20049;-52
2022/12/17 18:13:53;;;;;;;36.00;19.52;;;-1.20;64.10;;;;;;5022777;28;20044;-56
2022/12/17 18:14:47;;;;;;;32.30;18.95;;;-1.30;64.10;;;;;;5015746;28;20048;-55
2022/12/17 18:17:34;;;;;;;34.85;18.27;;;-1.30;64.10;;;;;;5031062;28;20069;-55
2022/12/17 18:20:01;;;;;;;33.85;20.15;;;-1.30;64.00;;;;;;5027959;28;20477;-52
2022/12/17 18:22:27;;;;;;;37.58;19.25;;;-1.40;64.00;;;;;;5016096;28;20043;-53
2022/12/17 18:24:54;;;;;;;34.67;19.40;;;-1.40;63.80;;;;;;5028046;28;20051;-53
2022/12/17 18:27:21;;;;;;;37.97;19.50;;;-1.50;63.80;;;;;;5024981;28;20039;-54
2022/12/17 18:29:53;;;;;;;42.70;21.50;;;-1.50;63.90;;;;;;5020059;28;20196;-52
2022/12/17 18:32:20;;;;;;;39.70;18.55;;;-1.50;63.90;;;;;;5032146;28;20069;-53
2022/12/17 18:34:46;;;;;;;36.50;20.33;;;-1.50;63.90;;;;;;5024225;28;20041;-52
2022/12/17 18:37:18;;;;;;;33.42;20.13;;;-1.60;63.90;;;;;;5028386;28;20041;-56
2022/12/17 18:39:50;;;;;;;26.35;13.90;;;-1.60;63.90;;;;;;5024314;28;20049;-52
2022/12/17 18:45:03;;;;;;;40.28;20.10;;;-1.70;63.90;;;;;;5028888;28;20049;-53
2022/12/17 18:47:29;;;;;;;39.13;19.40;;;-1.70;63.80;;;;;;5024105;28;20117;-53
2022/12/17 18:49:56;;;;;;;40.75;20.90;;;-1.70;63.80;;;;;;5028675;28;20030;-52
2022/12/17 18:52:23;;;;;;;37.33;21.50;;;-1.70;63.90;;;;;;5028252;28;20039;-53
2022/12/17 18:54:52;;;;;;;41.28;20.08;;;-1.70;64.00;;;;;;5030570;28;20510;-51
2022/12/17 18:57:18;;;;;;;41.55;22.42;;;-1.80;64.00;;;;;;5024421;28;20041;-52
2022/12/17 18:59:48;;;;;;;43.08;23.35;;;-1.80;64.10;;;;;;5040099;28;20510;-53
2022/12/17 19:02:17;;;;;;;43.00;23.63;;;-1.80;64.10;;;;;;5029312;28;20056;-54
2022/12/17 19:04:44;;;;;;;47.83;24.42;;;-1.80;64.10;;;;;;5023935;28;20077;-54
2022/12/17 19:07:12;;;;;;;43.80;24.75;;;-1.80;64.10;;;;;;5031211;28;20033;-53
2022/12/17 19:09:41;;;;;;;41.42;24.90;;;-1.90;64.00;;;;;;5014620;28;20046;-51
2022/12/17 19:12:10;;;;;;;46.00;24.08;;;-1.90;64.00;;;;;;5021351;28;20053;-54
2022/12/17 19:14:41;;;;;;;45.60;24.63;;;-1.90;63.90;;;;;;5031476;28;20038;-51
2022/12/17 19:17:10;;;;;;;44.55;22.92;;;-1.90;63.90;;;;;;5023720;28;20124;-52
2022/12/17 19:19:37;;;;;;;48.88;25.02;;;-1.90;63.90;;;;;;5029329;28;20073;-53
2022/12/17 19:22:06;;;;;;;42.42;25.20;;;-1.90;63.80;;;;;;5028411;28;20057;-54
2022/12/17 19:24:32;;;;;;;46.00;24.58;;;-2.00;63.70;;;;;;5027176;28;20119;-53
2022/12/17 19:27:02;;;;;;;37.83;23.98;;;-2.00;63.70;;;;;;5026991;28;20067;-53
2022/12/17 19:29:29;;;;;;;45.95;24.05;;;-2.00;63.80;;;;;;5029611;28;20045;-53
2022/12/17 19:31:56;;;;;;;41.45;23.13;;;-2.00;63.80;;;;;;5027200;28;20065;-53
2022/12/17 19:34:23;;;;;;;42.55;23.95;;;-2.10;63.80;;;;;;5025954;28;20045;-54
2022/12/17 19:36:49;;;;;;;39.03;23.23;;;-2.10;63.80;;;;;;5027371;28;20045;-52
2022/12/17 19:39:19;;;;;;;48.85;25.30;;;-2.10;63.80;;;;;;5023015;28;20075;-51
2022/12/17 19:41:49;;;;;;;47.75;25.63;;;-2.10;63.90;;;;;;5031300;28;20528;-51
2022/12/17 19:44:19;;;;;;;45.28;25.05;;;-2.10;64.00;;;;;;5023474;28;20095;-52
2022/12/17 19:46:46;;;;;;;46.67;24.60;;;-2.10;64.10;;;;;;5031713;28;20072;-51
2022/12/17 19:49:15;;;;;;;43.70;24.50;;;-2.10;64.10;;;;;;5023994;28;20054;-52
2022/12/17 19:51:43;;;;;;;47.70;24.75;;;-2.10;64.20;;;;;;5023043;28;20047;-51
2022/12/17 19:54:16;;;;;;;47.58;27.02;;;-2.10;64.30;;;;;;5030617;28;20115;-52
2022/12/17 19:56:44;;;;;;;47.10;26.02;;;-2.00;65.00;;;;;;5030711;28;20523;-53
2022/12/17 19:59:11;;;;;;;43.65;24.42;;;-2.10;64.30;;;;;;5036128;28;20046;-53
2022/12/17 20:01:44;;;;;;;46.42;25.20;;;-2.00;64.40;;;;;;5026463;28;20049;-53
2022/12/17 20:04:13;;;;;;;49.35;27.42;;;-2.00;64.40;;;;;;5022224;28;20045;-52
2022/12/17 20:06:40;;;;;;;46.13;26.67;;;-2.00;64.40;;;;;;5029633;28;20052;-52
2022/12/17 20:09:07;;;;;;;53.03;27.77;;;-2.00;64.40;;;;;;5025890;28;20045;-54
2022/12/17 20:11:39;;;;;;;48.38;26.23;;;-2.00;64.40;;;;;;5016492;28;20129;-52
2022/12/17 20:14:12;;;;;;;54.60;27.58;;;-1.90;64.40;;;;;;5028170;28;20037;-51
2022/12/17 20:16:48;;;;;;;50.83;27.02;;;-1.90;64.50;;;;;;5028287;28;20073;-53
2022/12/17 20:19:23;;;;;;;51.85;26.67;;;-1.90;64.50;;;;;;5028854;28;20041;-52
2022/12/17 20:21:50;;;;;;;49.38;26.65;;;-1.90;64.50;;;;;;5022860;28;20049;-50
2022/12/17 20:24:18;;;;;;;50.95;27.25;;;-1.90;64.50;;;;;;5030353;28;20494;-55
2022/12/17 20:26:49;;;;;;;57.47;31.08;;;-1.90;65.10;;;;;;5007167;28;20674;-54
2022/12/17 20:29:21;;;;;;;57.08;31.27;;;-1.80;64.60;;;;;;5030648;28;20498;-53
2022/12/17 20:31:49;;;;;;;;;;;-1.80;64.50;;;;;;5018244;28;20042;-51
2022/12/17 20:34:20;;;;;;;62.33;32.88;;;-1.80;64.30;;;;;;5018623;28;20404;-51
2022/12/17 20:36:46;;;;;;;66.68;35.08;;;-1.80;64.40;;;;;;5012659;28;20056;-53
2022/12/17 20:39:13;;;;;;;56.30;30.63;;;-1.80;64.40;;;;;;5018549;28;20071;-53
2022/12/17 20:41:43;;;;;;;44.67;24.98;;;-1.70;64.60;;;;;;5036182;28;20063;-51
2022/12/17 20:44:14;;;;;;;41.72;23.05;;;-1.70;64.80;;;;;;5048802;28;20051;-56
2022/12/17 20:46:42;;;;;;;41.45;22.80;;;-1.70;64.90;;;;;;5030058;28;20076;-52
2022/12/17 20:49:19;;;;;;;43.90;22.75;;;-1.70;65.00;;;;;;5027593;28;20045;-54
2022/12/17 20:51:46;;;;;;;35.47;21.58;;;-1.60;65.10;;;;;;5007063;28;20196;-54
2022/12/17 20:54:12;;;;;;;35.15;19.90;;;-1.70;65.10;;;;;;5036269;28;20049;-54
2022/12/17 20:56:39;;;;;;;36.45;20.88;;;-1.60;65.30;;;;;;5029827;28;20046;-54
2022/12/17 20:59:10;;;;;;;32.78;19.70;;;-1.60;65.60;;;;;;5033559;28;20049;-51
2022/12/17 21:01:37;;;;;;;31.35;19.63;;;-1.60;65.90;;;;;;5027084;28;20140;-54
2022/12/17 21:04:06;;;;;;;31.48;18.02;;;-1.50;66.20;;;;;;5008605;28;20071;-54
2022/12/17 21:06:44;;;;;;;33.40;19.17;;;-1.50;66.40;;;;;;5028108;28;20124;-55
2022/12/17 21:09:12;;;;;;;32.65;20.95;;;-1.40;66.50;;;;;;5021032;28;20484;-52
2022/12/17 21:11:40;;;;;;;30.75;18.52;;;-1.40;66.50;;;;;;5031940;28;20038;-51
2022/12/17 21:14:11;;;;;;;33.72;19.95;;;-1.40;66.60;;;;;;5026032;28;20160;-53
2022/12/17 21:16:39;;;;;;;27.52;19.02;;;-1.30;66.70;;;;;;5021245;28;20050;-54
2022/12/17 21:19:10;;;;;;;31.17;17.42;;;-1.30;66.70;;;;;;5028645;28;20076;-53
2022/12/17 21:21:37;;;;;;;31.40;17.30;;;-1.20;66.70;;;;;;5031677;28;20045;-54
2022/12/17 21:24:05;;;;;;;31.98;18.95;;;-1.20;66.60;;;;;;5025000;28;20051;-51
2022/12/17 21:26:34;;;;;;;32.83;20.92;;;-1.10;66.60;;;;;;5023502;28;20120;-55
2022/12/17 21:29:03;;;;;;;38.75;22.38;;;-1.10;66.60;;;;;;5021054;28;20495;-54
2022/12/17 21:31:33;;;;;;;35.33;20.85;;;-1.00;66.60;;;;;;5008748;28;20220;-55
2022/12/17 21:34:02;;;;;;;30.95;18.33;;;-1.00;66.60;;;;;;5022239;28;20049;-52
2022/12/17 21:36:31;;;;;;;33.13;20.60;;;-1.00;66.60;;;;;;5022706;28;20041;-54
2022/12/17 21:38:59;;;;;;;27.30;16.50;;;-1.00;66.50;;;;;;5022726;28;20444;-55
2022/12/17 21:41:30;;;;;;;32.08;17.92;;;-0.90;66.60;;;;;;5021465;28;20060;-55
2022/12/17 21:44:01;;;;;;;30.20;16.53;;;-1.00;66.40;;;;;;5026437;28;20701;-54
2022/12/17 21:46:29;;;;;;;26.73;15.07;;;-0.90;66.30;;;;;;5017365;28;20121;-56
2022/12/17 21:49:01;;;;;;;26.88;16.75;;;-0.90;66.10;;;;;;5026012;28;20081;-55
2022/12/17 21:51:29;;;;;;;33.50;17.77;;;-0.90;66.00;;;;;;5023828;28;20072;-54
2022/12/17 21:54:00;;;;;;;35.35;21.83;;;-0.90;66.10;;;;;;5019665;28;20038;-56
2022/12/17 21:56:27;;;;;;;28.13;19.13;;;-0.90;66.20;;;;;;5028433;28;20033;-56
2022/12/17 21:58:57;;;;;;;31.27;20.35;;;-0.90;66.20;;;;;;5029111;28;20422;-56
2022/12/17 22:01:30;;;;;;;32.85;20.13;;;-0.90;66.30;;;;;;5023649;28;20128;-54
2022/12/17 22:04:03;;;;;;;30.20;17.38;;;-0.90;66.40;;;;;;5026784;28;20052;-51
2022/12/17 22:06:31;;;;;;;26.48;17.25;;;-0.90;66.40;;;;;;5021645;28;20057;-57
2022/12/17 22:09:11;;;;;;;28.48;16.98;;;-0.90;66.40;;;;;;5022896;28;20041;-55
2022/12/17 22:14:48;;;;;;;33.00;18.50;;;-0.70;66.30;;;;;;5021205;28;20492;-52
2022/12/17 22:17:20;;;;;;;32.63;18.48;;;-0.90;66.20;;;;;;5012892;28;20134;-54
2022/12/17 22:19:46;;;;;;;36.80;20.73;;;-0.80;66.30;;;;;;5023640;28;20050;-52
2022/12/17 22:22:13;;;;;;;36.83;19.23;;;-0.90;66.40;;;;;;5026768;28;20673;-52
2022/12/17 22:24:42;;;;;;;28.35;16.85;;;-0.90;66.50;;;;;;5020114;28;20461;-54
2022/12/17 22:27:10;;;;;;;29.10;17.67;;;-0.90;66.50;;;;;;5043033;28;20060;-52
2022/12/17 22:35:11;;;;;;;26.67;15.38;;;-0.90;66.20;;;;;;5028780;28;20045;-52
2022/12/17 22:37:58;;;;;;;22.33;13.77;;;-0.90;66.00;;;;;;5020914;28;20041;-53
2022/12/17 22:40:44;;;;;;;23.42;13.48;;;-0.90;65.70;;;;;;5026835;28;20049;-54
2022/12/17 22:43:36;;;;;;;23.17;14.52;;;-0.90;65.60;;;;;;5027706;28;20549;-52
2022/12/17 22:46:23;;;;;;;27.00;15.25;;;-0.90;65.40;;;;;;5030008;28;20095;-54
2022/12/17 22:48:50;;;;;;;25.63;14.50;;;-1.00;65.30;;;;;;5029896;28;20073;-53
2022/12/17 22:51:21;;;;;;;28.00;16.05;;;-1.00;65.20;;;;;;5028295;28;20088;-51
2022/12/17 22:54:04;;;;;;;22.97;14.70;;;-1.00;65.20;;;;;;5028723;28;20048;-54
2022/12/17 22:56:33;;;;;;;24.90;14.63;;;-1.10;65.00;;;;;;5029505;28;20045;-54
2022/12/17 22:59:25;;;;;;;26.33;13.98;;;-1.10;65.00;;;;;;5023633;28;20073;-54
2022/12/17 23:01:56;;;;;;;24.27;13.88;;;-1.20;65.00;;;;;;5023565;28;20056;-53
2022/12/17 23:04:22;;;;;;;28.00;15.95;;;-1.20;65.10;;;;;;5030946;28;20065;-54
2022/12/17 23:06:49;;;;;;;27.48;15.48;;;-1.20;65.30;;;;;;5030268;28;20041;-54
2022/12/17 23:09:18;;;;;;;24.20;13.88;;;-1.20;65.40;;;;;;5022643;28;20044;-53
2022/12/17 23:11:48;;;;;;;24.00;14.00;;;-1.20;65.60;;;;;;5032022;28;20498;-53
2022/12/17 23:14:18;;;;;;;26.35;14.57;;;-1.20;65.60;;;;;;5028177;28;20037;-53
2022/12/17 23:16:48;;;;;;;24.63;13.45;;;-1.30;65.60;;;;;;5024977;28;20458;-52
2022/12/17 23:19:14;;;;;;;23.35;12.75;;;-1.30;65.50;;;;;;5027647;28;20057;-54
2022/12/17 23:21:41;;;;;;;24.17;13.55;;;-1.30;65.40;;;;;;5026762;28;20077;-53
2022/12/17 23:24:12;;;;;;;20.65;12.95;;;-1.30;65.30;;;;;;5031291;28;20044;-52
2022/12/17 23:26:39;;;;;;;21.20;15.00;;;-1.30;65.10;;;;;;5026737;28;20045;-54
2022/12/17 23:29:12;;;;;;;21.23;13.38;;;-1.30;65.00;;;;;;5070673;23;20071;-53
2022/12/17 23:31:47;;;;;;;22.52;12.15;;;-1.40;64.90;;;;;;5068888;28;20041;-55
2022/12/17 23:34:16;;;;;;;19.00;9.07;;;-1.40;64.80;;;;;;5062189;28;20033;-55
2022/12/17 23:36:42;;;;;;;20.85;11.73;;;-1.50;64.60;;;;;;5055108;28;20048;-55
2022/12/17 23:39:09;;;;;;;21.08;12.27;;;-1.50;64.60;;;;;;5068616;28;20048;-54
2022/12/17 23:41:36;;;;;;;25.67;12.77;;;-1.60;64.60;;;;;;5051480;28;20498;-55
2022/12/17 23:44:04;;;;;;;21.02;13.55;;;-1.60;64.50;;;;;;5052714;28;20045;-55
2022/12/17 23:46:30;;;;;;;26.15;13.52;;;-1.70;64.40;;;;;;5060888;28;20059;-55
2022/12/17 23:49:06;;;;;;;22.90;13.40;;;-1.70;64.30;;;;;;5069258;28;20043;-55
2022/12/17 23:51:33;;;;;;;26.67;13.55;;;-1.80;64.30;;;;;;5053010;28;20072;-55
2022/12/17 23:54:02;;;;;;;22.25;13.48;;;-1.80;64.30;;;;;;5049412;28;20073;-52
2022/12/17 23:56:28;;;;;;;22.98;12.48;;;-1.80;64.30;;;;;;5046191;28;20460;-54
2022/12/17 23:59:01;;;;;;;22.30;12.65;;;-1.90;64.20;;;;;;5063227;28;20068;-55
